Time;durP1;ratioP1;P1;durP2;ratioP2;P2;SDS_P1;SDS_P2;PMS_P1;PMS_P2;Temp;Humidity;BMP_temperature;BMP_pressure;BME280_temperature;BME280_humidity;BME280_pressure;Samples;Min_cycle;Max_cycle;Signal;HPM_P1;HPM_P2
2022/02/12 00:00:24;;;;;;;1.50;1.50;;;;;;;;;;5044805;28;20060;-81
2022/02/12 00:02:53;;;;;;;1.00;1.00;;;;;;;;;;5044372;28;20029;-81
2022/02/12 00:05:19;;;;;;;0.90;0.90;;;;;;;;;;5045315;28;20079;-84
2022/02/12 00:07:45;;;;;;;0.80;0.80;;;;;;;;;;5044887;28;20496;-84
2022/02/12 00:10:12;;;;;;;0.80;0.80;;;;;;;;;;5044160;28;20041;-84
2022/02/12 00:12:38;;;;;;;0.75;0.75;;;;;;;;;;5044998;28;20063;-84
2022/02/12 00:15:04;;;;;;;0.70;0.70;;;;;;;;;;5044497;28;20051;-83
2022/02/12 00:17:30;;;;;;;0.60;0.60;;;;;;;;;;5028681;28;20028;-84
2022/02/12 00:19:56;;;;;;;0.77;0.77;;;;;;;;;;5027304;28;20436;-84
2022/02/12 00:22:23;;;;;;;0.85;0.85;;;;;;;;;;5044925;28;20365;-85
2022/02/12 00:24:49;;;;;;;0.70;0.70;;;;;;;;;;5045234;28;20029;-83
2022/02/12 00:27:15;;;;;;;0.50;0.50;;;;;;;;;;5044044;28;20017;-84
2022/02/12 00:29:41;;;;;;;1.25;1.25;;;;;;;;;;5043584;28;20083;-84
2022/02/12 00:32:07;;;;;;;0.80;0.80;;;;;;;;;;5044609;28;20043;-85
2022/02/12 00:34:33;;;;;;;0.70;0.70;;;;;;;;;;5044191;28;21021;-84
2022/02/12 00:36:59;;;;;;;0.60;0.60;;;;;;;;;;5043288;28;20033;-85
2022/02/12 00:39:25;;;;;;;0.60;0.60;;;;;;;;;;5044111;28;20112;-84
2022/02/12 00:41:51;;;;;;;0.50;0.50;;;;;;;;;;5026285;28;20095;-85
2022/02/12 00:44:18;;;;;;;1.10;1.10;;;;;;;;;;5043641;28;20059;-84
2022/02/12 00:46:44;;;;;;;1.43;1.43;;;;;;;;;;5044127;28;20029;-84
2022/02/12 00:49:10;;;;;;;1.50;1.50;;;;;;;;;;5042699;28;20090;-85
2022/02/12 00:51:36;;;;;;;1.17;1.17;;;;;;;;;;5043898;28;20704;-86
2022/02/12 00:54:02;;;;;;;1.30;1.30;;;;;;;;;;5042596;28;20407;-86
2022/02/12 00:56:31;;;;;;;1.20;1.20;;;;;;;;;;5043900;28;20055;-85
2022/02/12 00:58:57;;;;;;;1.10;1.10;;;;;;;;;;5044101;28;20104;-86
2022/02/12 01:01:23;;;;;;;0.95;0.95;;;;;;;;;;5043093;28;20098;-85
2022/02/12 01:03:49;;;;;;;1.15;1.15;;;;;;;;;;5043747;28;20566;-85
2022/02/12 01:06:15;;;;;;;1.40;1.40;;;;;;;;;;5043808;28;20024;-85
2022/02/12 01:08:42;;;;;;;1.20;1.20;;;;;;;;;;5043928;28;20375;-82
2022/02/12 01:11:09;;;;;;;1.00;1.00;;;;;;;;;;5043789;28;20040;-86
2022/02/12 01:13:35;;;;;;;1.00;1.00;;;;;;;;;;5043650;28;20045;-85
2022/02/12 01:16:02;;;;;;;0.98;0.98;;;;;;;;;;5035718;28;20517;-87
2022/02/12 01:18:28;;;;;;;1.05;1.05;;;;;;;;;;5016284;28;20040;-85
2022/02/12 01:20:54;;;;;;;0.80;0.80;;;;;;;;;;5043334;28;20037;-84
2022/02/12 01:23:20;;;;;;;0.80;0.80;;;;;;;;;;5043293;28;20329;-85
2022/02/12 01:25:48;;;;;;;0.90;0.90;;;;;;;;;;5043979;28;20044;-84
2022/02/12 01:28:15;;;;;;;0.70;0.70;;;;;;;;;;5042922;28;20033;-85
2022/02/12 01:30:41;;;;;;;0.70;0.70;;;;;;;;;;5041111;28;20433;-85
2022/02/12 01:33:07;;;;;;;0.73;0.73;;;;;;;;;;5042961;28;20021;-85
2022/02/12 01:35:33;;;;;;;0.93;0.93;;;;;;;;;;5043049;28;20044;-83
2022/02/12 01:37:59;;;;;;;0.73;0.73;;;;;;;;;;5044052;28;20040;-84
2022/02/12 01:40:27;;;;;;;0.60;0.60;;;;;;;;;;5041823;28;20029;-84
2022/02/12 01:42:53;;;;;;;0.60;0.60;;;;;;;;;;5042890;28;20025;-83
2022/02/12 01:45:19;;;;;;;0.60;0.60;;;;;;;;;;5042586;28;20148;-84
2022/02/12 01:47:45;;;;;;;0.70;0.70;;;;;;;;;;5041577;28;20149;-83
2022/02/12 01:50:12;;;;;;;0.70;0.70;;;;;;;;;;5042866;28;20036;-83
2022/02/12 01:52:40;;;;;;;0.70;0.70;;;;;;;;;;5043594;28;20029;-83
2022/02/12 01:55:07;;;;;;;0.70;0.70;;;;;;;;;;5042278;28;20078;-83
2022/02/12 01:57:33;;;;;;;0.70;0.70;;;;;;;;;;5042522;28;20033;-83
2022/02/12 01:59:59;;;;;;;0.80;0.80;;;;;;;;;;5042260;28;20029;-83
2022/02/12 02:02:25;;;;;;;0.70;0.70;;;;;;;;;;5042759;28;20032;-83
2022/02/12 02:04:51;;;;;;;0.77;0.77;;;;;;;;;;5043794;28;20060;-84
2022/02/12 02:07:18;;;;;;;1.20;1.20;;;;;;;;;;5042402;28;20112;-85
2022/02/12 02:09:45;;;;;;;0.98;0.98;;;;;;;;;;5040973;28;20279;-84
2022/02/12 02:12:11;;;;;;;0.95;0.95;;;;;;;;;;5037546;28;20040;-84
2022/02/12 02:14:39;;;;;;;0.80;0.80;;;;;;;;;;5032094;28;20136;-85
2022/02/12 02:17:05;;;;;;;0.82;0.82;;;;;;;;;;5027685;28;20468;-84
2022/02/12 02:19:32;;;;;;;1.20;1.20;;;;;;;;;;5041996;28;20119;-85
2022/02/12 02:21:58;;;;;;;1.00;1.00;;;;;;;;;;5040300;28;20037;-85
2022/02/12 02:24:25;;;;;;;1.20;1.20;;;;;;;;;;5042311;28;20098;-87
2022/02/12 02:26:51;;;;;;;1.50;1.50;;;;;;;;;;5042275;28;20033;-87
2022/02/12 02:29:17;;;;;;;1.48;1.48;;;;;;;;;;5038946;28;20025;-87
2022/02/12 02:31:43;;;;;;;1.60;1.60;;;;;;;;;;5042746;28;20060;-87
2022/02/12 02:34:10;;;;;;;1.60;1.60;;;;;;;;;;5040820;28;20029;-87
2022/02/12 02:36:36;;;;;;;1.20;1.20;;;;;;;;;;5042287;28;20028;-85
2022/02/12 02:39:02;;;;;;;1.30;1.30;;;;;;;;;;5042971;28;20060;-84
2022/02/12 02:41:28;;;;;;;1.20;1.20;;;;;;;;;;5042358;28;20025;-83
2022/02/12 02:43:54;;;;;;;1.20;1.20;;;;;;;;;;5042905;28;20037;-84
2022/02/12 02:46:20;;;;;;;1.20;1.20;;;;;;;;;;5037130;28;20029;-84
2022/02/12 02:48:46;;;;;;;1.30;1.30;;;;;;;;;;5036400;28;20272;-84
2022/02/12 02:56:43;;;;;;;1.20;1.20;;;;;;;;;;5027883;28;20086;-87
2022/02/12 02:59:09;;;;;;;1.00;1.00;;;;;;;;;;5042521;28;20033;-85
2022/02/12 03:01:35;;;;;;;1.40;1.40;;;;;;;;;;5042753;28;20028;-85
2022/02/12 03:04:02;;;;;;;1.05;1.05;;;;;;;;;;5042444;28;20416;-86
2022/02/12 03:06:29;;;;;;;1.05;1.05;;;;;;;;;;5042299;28;20033;-84
2022/02/12 03:08:56;;;;;;;1.17;1.17;;;;;;;;;;5042635;28;20061;-84
2022/02/12 03:11:22;;;;;;;;;;;;;;;;;;5044391;28;20037;-84
2022/02/12 03:13:49;;;;;;;1.23;1.23;;;;;;;;;;5046263;28;19916;-84
2022/02/12 03:16:15;;;;;;;1.10;1.10;;;;;;;;;;5044384;28;20055;-83
2022/02/12 03:18:43;;;;;;;1.30;1.30;;;;;;;;;;5045842;28;20403;-84
2022/02/12 03:21:09;;;;;;;1.35;1.35;;;;;;;;;;5043816;28;20552;-84
2022/02/12 03:23:35;;;;;;;1.10;1.10;;;;;;;;;;5030127;28;20033;-84
2022/02/12 03:26:01;;;;;;;1.40;1.40;;;;;;;;;;5012184;28;20029;-84
2022/02/12 03:28:27;;;;;;;1.10;1.10;;;;;;;;;;5045220;28;20029;-85
2022/02/12 03:30:53;;;;;;;0.30;0.30;;;;;;;;;;5045309;28;20077;-84
2022/02/12 03:33:20;;;;;;;0.40;0.40;;;;;;;;;;5045253;28;20021;-83
2022/02/12 03:35:48;;;;;;;0.50;0.50;;;;;;;;;;5045225;28;20112;-84
2022/02/12 03:38:22;;;;;;;0.40;0.40;;;;;;;;;;5045014;28;20607;-84
2022/02/12 03:40:49;;;;;;;0.40;0.40;;;;;;;;;;5043562;28;20120;-84
2022/02/12 03:43:16;;;;;;;0.40;0.40;;;;;;;;;;5043816;28;20116;-84
2022/02/12 03:45:42;;;;;;;0.40;0.40;;;;;;;;;;5045187;28;20949;-84
2022/02/12 03:48:09;;;;;;;0.50;0.50;;;;;;;;;;5044926;28;20511;-82
2022/02/12 03:50:36;;;;;;;0.70;0.70;;;;;;;;;;5028831;28;20071;-83
2022/02/12 03:53:04;;;;;;;0.60;0.60;;;;;;;;;;5045666;28;20032;-83
2022/02/12 03:55:31;;;;;;;0.60;0.60;;;;;;;;;;5044450;28;20032;-83
2022/02/12 03:57:57;;;;;;;0.80;0.80;;;;;;;;;;5045053;28;20112;-83
2022/02/12 04:00:25;;;;;;;0.70;0.70;;;;;;;;;;5044708;28;20447;-83
2022/02/12 04:02:51;;;;;;;0.70;0.70;;;;;;;;;;5044396;28;20086;-82
2022/02/12 04:05:17;;;;;;;0.60;0.60;;;;;;;;;;5044754;28;20471;-81
2022/02/12 04:07:44;;;;;;;0.68;0.68;;;;;;;;;;5026845;28;20031;-83
2022/02/12 04:10:11;;;;;;;0.80;0.80;;;;;;;;;;5044015;28;20520;-85
2022/02/12 04:12:37;;;;;;;0.70;0.70;;;;;;;;;;5044497;28;20120;-86
2022/02/12 04:15:04;;;;;;;0.70;0.70;;;;;;;;;;5044742;28;20400;-86
2022/02/12 04:17:34;;;;;;;1.00;1.00;;;;;;;;;;5044031;28;20125;-82
2022/02/12 04:20:02;;;;;;;1.10;1.10;;;;;;;;;;5043520;28;20047;-82
2022/02/12 04:22:28;;;;;;;0.82;0.82;;;;;;;;;;5042866;28;20099;-82
2022/02/12 04:24:54;;;;;;;1.17;1.17;;;;;;;;;;5041879;28;20037;-82
2022/02/12 04:27:20;;;;;;;1.00;1.00;;;;;;;;;;5043937;28;20035;-82
2022/02/12 04:29:46;;;;;;;1.40;1.40;;;;;;;;;;5042467;28;20428;-82
2022/02/12 04:32:13;;;;;;;1.50;1.50;;;;;;;;;;5026308;28;20044;-82
2022/02/12 04:34:39;;;;;;;1.30;1.30;;;;;;;;;;5043321;28;20048;-82
2022/02/12 04:37:05;;;;;;;1.40;1.40;;;;;;;;;;5018401;28;20037;-82
2022/02/12 04:39:31;;;;;;;1.40;1.40;;;;;;;;;;5035038;28;20029;-82
2022/02/12 04:41:57;;;;;;;1.30;1.30;;;;;;;;;;5043502;28;20037;-84
2022/02/12 04:44:23;;;;;;;1.38;1.38;;;;;;;;;;5044206;28;20040;-83
2022/02/12 04:46:49;;;;;;;1.42;1.42;;;;;;;;;;5026363;28;20036;-83
2022/02/12 04:49:15;;;;;;;1.40;1.40;;;;;;;;;;5043658;28;20132;-83
2022/02/12 04:51:41;;;;;;;1.48;1.48;;;;;;;;;;5043689;28;20064;-83
2022/02/12 04:54:08;;;;;;;1.40;1.40;;;;;;;;;;5043425;28;20847;-84
2022/02/12 04:56:34;;;;;;;1.40;1.40;;;;;;;;;;5043797;28;20037;-85
2022/02/12 04:59:01;;;;;;;1.20;1.20;;;;;;;;;;5044640;28;20036;-85
2022/02/12 05:01:27;;;;;;;1.40;1.40;;;;;;;;;;5044202;28;20079;-82
2022/02/12 05:03:54;;;;;;;1.30;1.30;;;;;;;;;;5043804;28;20279;-82
2022/02/12 05:06:21;;;;;;;1.23;1.23;;;;;;;;;;5043862;28;20052;-84
2022/02/12 05:08:47;;;;;;;1.30;1.30;;;;;;;;;;5043797;28;20151;-85
2022/02/12 05:11:13;;;;;;;1.30;1.30;;;;;;;;;;5043999;28;20036;-85
2022/02/12 05:13:39;;;;;;;1.27;1.27;;;;;;;;;;5043914;28;20131;-83
2022/02/12 05:16:07;;;;;;;1.30;1.30;;;;;;;;;;5043759;28;20044;-84
2022/02/12 05:18:33;;;;;;;1.17;1.17;;;;;;;;;;5025950;28;20037;-84
2022/02/12 05:20:59;;;;;;;1.60;1.60;;;;;;;;;;5043716;28;20870;-85
2022/02/12 05:23:26;;;;;;;1.25;1.25;;;;;;;;;;5043796;28;20037;-85
2022/02/12 05:25:52;;;;;;;1.40;1.40;;;;;;;;;;5044205;28;20029;-84
2022/02/12 05:28:18;;;;;;;1.35;1.35;;;;;;;;;;5043904;28;20025;-84
2022/02/12 05:30:44;;;;;;;1.10;1.10;;;;;;;;;;5043359;28;20053;-86
2022/02/12 05:33:10;;;;;;;1.55;1.55;;;;;;;;;;5043085;28;20090;-83
2022/02/12 05:35:36;;;;;;;1.38;1.38;;;;;;;;;;5027626;28;20025;-84
2022/02/12 05:38:03;;;;;;;1.40;1.40;;;;;;;;;;5043730;28;20025;-84
2022/02/12 05:40:29;;;;;;;1.65;1.65;;;;;;;;;;5041343;28;20048;-84
2022/02/12 05:42:55;;;;;;;1.48;1.48;;;;;;;;;;5042931;28;20028;-84
2022/02/12 05:45:21;;;;;;;1.25;1.25;;;;;;;;;;5042839;28;20107;-82
2022/02/12 05:47:47;;;;;;;1.40;1.40;;;;;;;;;;5041450;28;20025;-83
2022/02/12 05:50:14;;;;;;;1.30;1.30;;;;;;;;;;5042998;28;20140;-83
2022/02/12 05:52:40;;;;;;;1.23;1.23;;;;;;;;;;5043489;28;20032;-82
2022/02/12 05:55:06;;;;;;;1.60;1.60;;;;;;;;;;5043353;28;20109;-83
2022/02/12 05:57:32;;;;;;;1.45;1.45;;;;;;;;;;5043025;28;20039;-84
2022/02/12 05:59:58;;;;;;;1.40;1.40;;;;;;;;;;5043273;28;20109;-84
2022/02/12 06:02:24;;;;;;;1.30;1.30;;;;;;;;;;5043134;28;20096;-83
2022/02/12 06:04:50;;;;;;;1.50;1.50;;;;;;;;;;5043462;28;20033;-83
2022/02/12 06:07:16;;;;;;;1.35;1.35;;;;;;;;;;5041199;28;20487;-80
2022/02/12 06:09:42;;;;;;;1.50;1.50;;;;;;;;;;5042495;28;20033;-80
2022/02/12 06:12:09;;;;;;;1.40;1.40;;;;;;;;;;5042552;28;20033;-81
2022/02/12 06:14:35;;;;;;;1.17;1.17;;;;;;;;;;5042839;28;20045;-82
2022/02/12 06:17:01;;;;;;;1.50;1.50;;;;;;;;;;5043145;28;20087;-81
2022/02/12 06:19:27;;;;;;;1.60;1.60;;;;;;;;;;5042504;28;20029;-81
2022/02/12 06:21:53;;;;;;;1.45;1.45;;;;;;;;;;5038755;28;20048;-81
2022/02/12 06:24:20;;;;;;;1.40;1.40;;;;;;;;;;5042304;28;20523;-83
2022/02/12 06:26:51;;;;;;;1.47;1.47;;;;;;;;;;5041055;28;20047;-82
2022/02/12 06:29:18;;;;;;;1.42;1.42;;;;;;;;;;5042396;28;20033;-82
2022/02/12 06:31:44;;;;;;;1.50;1.50;;;;;;;;;;5042377;28;20060;-82
2022/02/12 06:34:10;;;;;;;1.50;1.50;;;;;;;;;;5042459;28;20120;-82
2022/02/12 06:36:36;;;;;;;1.60;1.60;;;;;;;;;;5042344;28;20029;-82
2022/02/12 06:39:02;;;;;;;1.50;1.50;;;;;;;;;;5042268;28;20303;-84
2022/02/12 06:41:28;;;;;;;1.58;1.58;;;;;;;;;;5042543;28;20037;-84
2022/02/12 06:43:54;;;;;;;1.45;1.45;;;;;;;;;;5043095;28;20029;-84
2022/02/12 06:46:20;;;;;;;1.50;1.50;;;;;;;;;;5017902;28;20040;-84
2022/02/12 06:48:46;;;;;;;1.50;1.50;;;;;;;;;;5039886;28;20033;-85
2022/02/12 06:51:15;;;;;;;1.50;1.50;;;;;;;;;;5045856;28;20116;-86
2022/02/12 06:53:41;;;;;;;1.48;1.48;;;;;;;;;;5046101;28;20033;-87
2022/02/12 06:56:08;;;;;;;1.40;1.40;;;;;;;;;;5046742;28;20029;-87
2022/02/12 06:58:34;;;;;;;1.47;1.47;;;;;;;;;;5046161;28;20040;-85
2022/02/12 07:01:00;;;;;;;1.40;1.40;;;;;;;;;;5045836;28;20079;-82
2022/02/12 07:03:26;;;;;;;1.48;1.48;;;;;;;;;;5045427;28;20512;-83
2022/02/12 07:05:52;;;;;;;1.40;1.40;;;;;;;;;;5046186;28;20563;-83
2022/02/12 07:08:18;;;;;;;1.52;1.52;;;;;;;;;;5045366;28;20035;-84
2022/02/12 07:10:44;;;;;;;1.30;1.30;;;;;;;;;;5046413;28;20063;-85
2022/02/12 07:13:14;;;;;;;1.38;1.38;;;;;;;;;;5046972;28;20060;-91
2022/02/12 07:15:43;;;;;;;1.45;1.45;;;;;;;;;;5031682;28;20114;-89
2022/02/12 07:18:09;;;;;;;1.27;1.27;;;;;;;;;;5046166;28;20124;-90
2022/02/12 07:20:35;;;;;;;1.43;1.43;;;;;;;;;;5044477;28;20025;-89
2022/02/12 07:23:08;;;;;;;1.60;1.60;;;;;;;;;;5042459;28;20112;-89
2022/02/12 07:25:33;;;;;;;1.60;1.60;;;;;;;;;;5047395;28;20506;-91
2022/02/12 07:28:00;;;;;;;1.60;1.60;;;;;;;;;;5049547;28;20116;-89
2022/02/12 07:30:26;;;;;;;1.40;1.40;;;;;;;;;;5047986;28;20080;-90
2022/02/12 07:32:52;;;;;;;1.47;1.47;;;;;;;;;;5048712;28;20033;-91
2022/02/12 07:35:18;;;;;;;1.30;1.30;;;;;;;;;;5046616;28;20053;-90
2022/02/12 07:37:45;;;;;;;1.37;1.37;;;;;;;;;;5046635;28;20105;-87
2022/02/12 07:40:13;;;;;;;1.25;1.25;;;;;;;;;;5043501;28;20116;-88
2022/02/12 07:42:39;;;;;;;1.40;1.40;;;;;;;;;;5031978;28;20035;-87
2022/02/12 07:45:06;;;;;;;1.37;1.37;;;;;;;;;;5045128;28;20020;-87
2022/02/12 07:47:32;;;;;;;1.30;1.30;;;;;;;;;;5045693;28;20319;-87
2022/02/12 07:49:58;;;;;;;1.35;1.35;;;;;;;;;;5046535;28;20079;-90
2022/02/12 07:52:24;;;;;;;1.30;1.30;;;;;;;;;;5044988;28;20037;-87
2022/02/12 07:54:50;;;;;;;1.27;1.27;;;;;;;;;;5041425;28;20029;-82
2022/02/12 07:57:16;;;;;;;1.58;1.58;;;;;;;;;;5042414;28;20488;-87
2022/02/12 07:59:42;;;;;;;1.40;1.40;;;;;;;;;;5044950;28;20029;-88
2022/02/12 08:02:08;;;;;;;1.50;1.50;;;;;;;;;;5045654;28;20493;-83
2022/02/12 08:04:34;;;;;;;1.30;1.30;;;;;;;;;;5021940;28;20044;-89
2022/02/12 08:09:46;;;;;;;1.40;1.40;;;;;;;;;;5043301;28;20945;-88
2022/02/12 08:12:15;;;;;;;;;;;;;;;;;;5038207;28;20033;-88
2022/02/12 08:14:42;;;;;;;1.50;1.50;;;;;;;;;;5044129;28;20440;-88
2022/02/12 08:17:08;;;;;;;1.40;1.40;;;;;;;;;;5042137;28;20036;-87
2022/02/12 08:19:34;;;;;;;1.50;1.50;;;;;;;;;;5040765;28;20036;-87
2022/02/12 08:22:00;;;;;;;1.60;1.60;;;;;;;;;;5038381;28;20032;-87
2022/02/12 08:24:26;;;;;;;1.50;1.50;;;;;;;;;;5039930;28;20045;-88
2022/02/12 08:26:52;;;;;;;1.40;1.40;;;;;;;;;;5040434;28;20024;-86
2022/02/12 08:29:18;;;;;;;1.50;1.50;;;;;;;;;;5042436;28;20291;-87
2022/02/12 08:31:44;;;;;;;1.27;1.27;;;;;;;;;;5043055;28;20056;-89
2022/02/12 08:34:10;;;;;;;1.45;1.45;;;;;;;;;;5039819;28;20047;-87
2022/02/12 08:36:36;;;;;;;0.70;0.70;;;;;;;;;;5041257;28;20690;-88
2022/02/12 08:39:02;;;;;;;0.30;0.30;;;;;;;;;;5040370;28;20021;-87
2022/02/12 08:41:29;;;;;;;0.20;0.20;;;;;;;;;;5040915;28;20040;-88
2022/02/12 08:43:55;;;;;;;2.67;0.73;;;;;;;;;;5041535;28;20291;-87
2022/02/12 08:46:21;;;;;;;0.30;0.30;;;;;;;;;;5037723;28;20060;-88
2022/02/12 08:48:47;;;;;;;0.20;0.20;;;;;;;;;;5023071;28;20492;-85
2022/02/12 08:51:13;;;;;;;0.40;0.40;;;;;;;;;;5034721;28;20066;-86
2022/02/12 08:53:39;;;;;;;0.40;0.40;;;;;;;;;;5041217;28;20502;-85
2022/02/12 08:56:06;;;;;;;0.40;0.40;;;;;;;;;;5029944;28;20877;-85
2022/02/12 08:58:33;;;;;;;0.50;0.50;;;;;;;;;;5035899;28;20039;-85
2022/02/12 09:00:59;;;;;;;0.40;0.40;;;;;;;;;;5040794;28;20028;-85
2022/02/12 09:03:25;;;;;;;0.30;0.30;;;;;;;;;;5040345;28;20029;-85
2022/02/12 09:05:51;;;;;;;0.45;0.45;;;;;;;;;;5040066;28;20052;-84
2022/02/12 09:08:17;;;;;;;0.50;0.50;;;;;;;;;;5038176;28;20029;-85
2022/02/12 09:10:43;;;;;;;0.50;0.50;;;;;;;;;;5036238;28;20516;-87
2022/02/12 09:13:10;;;;;;;0.60;0.60;;;;;;;;;;5037465;28;21037;-84
2022/02/12 09:15:36;;;;;;;0.30;0.30;;;;;;;;;;5038724;28;20021;-86
2022/02/12 09:18:03;;;;;;;0.30;0.30;;;;;;;;;;5040255;28;20393;-85
2022/02/12 09:20:29;;;;;;;0.40;0.40;;;;;;;;;;5040397;28;20154;-91
2022/02/12 09:22:55;;;;;;;0.40;0.40;;;;;;;;;;5044585;28;20064;-88
2022/02/12 09:25:21;;;;;;;0.50;0.50;;;;;;;;;;5043612;28;20500;-86
2022/02/12 09:27:47;;;;;;;0.30;0.30;;;;;;;;;;5027901;28;20032;-85
2022/02/12 09:30:13;;;;;;;0.35;0.35;;;;;;;;;;5040883;28;20416;-93
2022/02/12 09:32:39;;;;;;;0.40;0.40;;;;;;;;;;5036696;28;20562;-89
2022/02/12 09:35:05;;;;;;;0.30;0.30;;;;;;;;;;5038943;28;20540;-89
2022/02/12 09:37:31;;;;;;;0.50;0.50;;;;;;;;;;5032992;28;20029;-84
2022/02/12 09:39:57;;;;;;;0.40;0.40;;;;;;;;;;5038372;28;20037;-83
2022/02/12 09:42:23;;;;;;;0.40;0.40;;;;;;;;;;5042926;28;20071;-83
2022/02/12 09:44:50;;;;;;;0.30;0.30;;;;;;;;;;5042737;28;20021;-83
2022/02/12 09:47:33;;;;;;;0.40;0.40;;;;;;;;;;5042618;28;20496;-84
2022/02/12 09:50:00;;;;;;;0.28;0.28;;;;;;;;;;5036834;28;20167;-87
2022/02/12 09:52:30;;;;;;;0.30;0.30;;;;;;;;;;5026735;28;20105;-91
2022/02/12 09:54:56;;;;;;;0.30;0.30;;;;;;;;;;5040088;28;20056;-89
2022/02/12 09:57:22;;;;;;;0.30;0.30;;;;;;;;;;5041684;28;20036;-87
2022/02/12 09:59:49;;;;;;;0.40;0.40;;;;;;;;;;5041062;28;20040;-87
2022/02/12 10:02:18;;;;;;;0.30;0.30;;;;;;;;;;5041846;28;20480;-88
2022/02/12 10:04:44;;;;;;;0.30;0.30;;;;;;;;;;5041520;28;20040;-80
2022/02/12 10:07:25;;;;;;;0.60;0.60;;;;;;;;;;5039816;28;20074;-80
2022/02/12 10:10:20;;;;;;;0.93;0.93;;;;;;;;;;5038096;28;20086;-80
2022/02/12 10:12:47;;;;;;;0.40;0.40;;;;;;;;;;5014178;28;20049;-80
2022/02/12 10:15:13;;;;;;;;;;;;;;;;;;5022184;28;20029;-80
2022/02/12 10:17:55;;;;;;;0.30;0.30;;;;;;;;;;5035957;28;19966;-82
2022/02/12 10:20:26;;;;;;;0.30;0.30;;;;;;;;;;5033281;28;20045;-81
2022/02/12 10:22:53;;;;;;;0.40;0.40;;;;;;;;;;5028433;28;20499;-81
2022/02/12 10:25:20;;;;;;;0.30;0.30;;;;;;;;;;5023796;28;20037;-81
2022/02/12 10:27:49;;;;;;;0.30;0.30;;;;;;;;;;5040562;28;20040;-81
2022/02/12 10:30:15;;;;;;;0.40;0.40;;;;;;;;;;5041193;28;20045;-81
2022/02/12 10:32:41;;;;;;;0.40;0.40;;;;;;;;;;5033503;28;20534;-79
2022/02/12 10:35:11;;;;;;;0.20;0.20;;;;;;;;;;5028199;28;20040;-82
2022/02/12 10:37:43;;;;;;;0.30;0.30;;;;;;;;;;5042973;28;20037;-81
2022/02/12 10:40:10;;;;;;;0.32;0.32;;;;;;;;;;5034634;28;20029;-81
2022/02/12 10:42:43;;;;;;;0.30;0.30;;;;;;;;;;5044292;28;20032;-82
2022/02/12 10:45:13;;;;;;;0.30;0.30;;;;;;;;;;5045717;28;20029;-81
2022/02/12 10:47:39;;;;;;;0.30;0.30;;;;;;;;;;5030379;28;20474;-81
2022/02/12 10:50:06;;;;;;;0.30;0.30;;;;;;;;;;5047077;28;20104;-81
2022/02/12 10:52:32;;;;;;;;;;;;;;;;;;5028224;28;20471;-81
2022/02/12 10:54:58;;;;;;;0.30;0.30;;;;;;;;;;5045778;28;19913;-82
2022/02/12 10:57:29;;;;;;;0.32;0.32;;;;;;;;;;5045754;28;20032;-82
2022/02/12 10:59:56;;;;;;;0.22;0.22;;;;;;;;;;5045987;28;20035;-81
2022/02/12 11:02:23;;;;;;;0.40;0.40;;;;;;;;;;5046241;28;20035;-80
2022/02/12 11:04:53;;;;;;;;;;;;;;;;;;5047196;28;20036;-80
2022/02/12 11:07:26;;;;;;;0.30;0.30;;;;;;;;;;5009845;28;20678;-81
2022/02/12 11:09:56;;;;;;;0.30;0.30;;;;;;;;;;5045746;28;20464;-81
2022/02/12 11:12:29;;;;;;;0.47;0.47;;;;;;;;;;5043398;28;20965;-81
2022/02/12 11:14:56;;;;;;;0.40;0.40;;;;;;;;;;5045690;28;20567;-81
2022/02/12 11:17:25;;;;;;;0.35;0.35;;;;;;;;;;5045985;28;20128;-81
2022/02/12 11:19:52;;;;;;;0.30;0.30;;;;;;;;;;5044414;28;20095;-81
2022/02/12 11:22:19;;;;;;;0.30;0.30;;;;;;;;;;5043280;28;20082;-82
2022/02/12 11:24:46;;;;;;;0.40;0.40;;;;;;;;;;5045281;28;20048;-81
2022/02/12 11:27:24;;;;;;;0.30;0.30;;;;;;;;;;5045291;28;20017;-81
2022/02/12 11:29:54;;;;;;;0.30;0.30;;;;;;;;;;5030822;28;20037;-81
2022/02/12 11:32:27;;;;;;;0.38;0.38;;;;;;;;;;5026351;28;20119;-81
2022/02/12 11:34:59;;;;;;;0.50;0.50;;;;;;;;;;5043793;28;20025;-81
2022/02/12 11:37:31;;;;;;;0.30;0.30;;;;;;;;;;5045109;28;20047;-81
2022/02/12 11:40:12;;;;;;;0.43;0.43;;;;;;;;;;5045448;28;20041;-80
2022/02/12 11:42:54;;;;;;;0.40;0.40;;;;;;;;;;5045051;28;20068;-81
2022/02/12 11:45:25;;;;;;;0.40;0.40;;;;;;;;;;5043872;28;20144;-81
2022/02/12 11:48:10;;;;;;;0.43;0.43;;;;;;;;;;5045169;28;20470;-81
2022/02/12 11:50:42;;;;;;;0.30;0.30;;;;;;;;;;5026932;28;20029;-81
2022/02/12 11:53:27;;;;;;;0.40;0.40;;;;;;;;;;5041895;28;20071;-81
2022/02/12 11:55:53;;;;;;;0.40;0.40;;;;;;;;;;5030341;28;20036;-81
2022/02/12 11:58:38;;;;;;;0.40;0.40;;;;;;;;;;5044695;28;20197;-82
2022/02/12 12:01:04;;;;;;;0.40;0.40;;;;;;;;;;5043395;28;20048;-81
2022/02/12 12:03:30;;;;;;;0.30;0.30;;;;;;;;;;5043411;28;20050;-81
2022/02/12 12:06:15;;;;;;;0.40;0.40;;;;;;;;;;5045330;28;20040;-81
2022/02/12 12:09:00;;;;;;;0.45;0.45;;;;;;;;;;5011760;28;20029;-81
2022/02/12 12:11:26;;;;;;;0.40;0.40;;;;;;;;;;5026509;28;20053;-82
2022/02/12 12:13:54;;;;;;;0.40;0.40;;;;;;;;;;5027505;28;20071;-82
2022/02/12 12:16:24;;;;;;;0.40;0.40;;;;;;;;;;5044806;28;20029;-81
2022/02/12 12:18:50;;;;;;;0.60;0.60;;;;;;;;;;5044420;28;20598;-81
2022/02/12 12:21:16;;;;;;;0.40;0.40;;;;;;;;;;5042070;28;20040;-81
2022/02/12 12:23:43;;;;;;;0.50;0.50;;;;;;;;;;5044589;28;20037;-81
2022/02/12 12:26:11;;;;;;;0.40;0.40;;;;;;;;;;5044846;28;20033;-81
2022/02/12 12:28:41;;;;;;;0.40;0.40;;;;;;;;;;5044583;28;20024;-81
2022/02/12 12:31:12;;;;;;;0.40;0.40;;;;;;;;;;5042391;28;20137;-81
2022/02/12 12:33:43;;;;;;;0.40;0.40;;;;;;;;;;5044128;28;20125;-81
2022/02/12 12:36:10;;;;;;;0.40;0.40;;;;;;;;;;5026399;28;20025;-81
2022/02/12 12:38:38;;;;;;;0.40;0.40;;;;;;;;;;5044462;28;20032;-82
2022/02/12 12:41:23;;;;;;;0.50;0.50;;;;;;;;;;5027095;28;20025;-82
2022/02/12 12:44:05;;;;;;;0.40;0.40;;;;;;;;;;5044135;28;20041;-81
2022/02/12 12:46:31;;;;;;;0.40;0.40;;;;;;;;;;5042542;28;20519;-81
2022/02/12 12:48:58;;;;;;;0.40;0.40;;;;;;;;;;5043936;28;20912;-82
2022/02/12 12:51:24;;;;;;;0.40;0.40;;;;;;;;;;5026221;28;20050;-81
2022/02/12 12:53:50;;;;;;;0.50;0.50;;;;;;;;;;5044075;28;20093;-82
2022/02/12 12:56:23;;;;;;;0.40;0.40;;;;;;;;;;5044389;28;20028;-81
2022/02/12 12:59:05;;;;;;;0.55;0.55;;;;;;;;;;5044112;28;20583;-81
2022/02/12 13:01:31;;;;;;;0.65;0.65;;;;;;;;;;5043579;28;20048;-82
2022/02/12 13:03:57;;;;;;;0.40;0.40;;;;;;;;;;5041846;28;20033;-81
2022/02/12 13:06:24;;;;;;;0.40;0.40;;;;;;;;;;5042161;28;20109;-81
2022/02/12 13:08:50;;;;;;;0.40;0.40;;;;;;;;;;5043407;28;20071;-81
2022/02/12 13:11:29;;;;;;;0.40;0.40;;;;;;;;;;5025554;28;20040;-81
2022/02/12 13:14:05;;;;;;;0.40;0.40;;;;;;;;;;5044258;28;20044;-81
2022/02/12 13:16:38;;;;;;;0.40;0.40;;;;;;;;;;5043563;28;20639;-81
2022/02/12 13:19:11;;;;;;;0.60;0.60;;;;;;;;;;5043460;28;20032;-81
2022/02/12 13:21:37;;;;;;;0.40;0.40;;;;;;;;;;5041136;28;20037;-81
2022/02/12 13:24:07;;;;;;;0.30;0.30;;;;;;;;;;5043493;28;20036;-81
2022/02/12 13:26:36;;;;;;;0.50;0.50;;;;;;;;;;5043523;28;20025;-81
2022/02/12 13:29:02;;;;;;;0.50;0.50;;;;;;;;;;5026289;28;20655;-81
2022/02/12 13:31:28;;;;;;;0.40;0.40;;;;;;;;;;5042550;28;20127;-81
2022/02/12 13:33:59;;;;;;;0.35;0.35;;;;;;;;;;5041507;28;20828;-81
2022/02/12 13:36:25;;;;;;;0.40;0.40;;;;;;;;;;5041826;28;20041;-82
2022/02/12 13:38:51;;;;;;;0.50;0.50;;;;;;;;;;5042857;28;20484;-81
2022/02/12 13:41:17;;;;;;;0.45;0.45;;;;;;;;;;5043482;28;20480;-81
2022/02/12 13:43:45;;;;;;;1.17;0.60;;;;;;;;;;5043767;28;20090;-81
2022/02/12 13:46:11;;;;;;;0.45;0.45;;;;;;;;;;5043225;28;20718;-81
2022/02/12 13:48:41;;;;;;;0.45;0.45;;;;;;;;;;5043202;28;20029;-82
2022/02/12 13:51:08;;;;;;;0.40;0.40;;;;;;;;;;5043446;28;20515;-82
2022/02/12 13:53:34;;;;;;;;;;;;;;;;;;5043295;28;20412;-81
2022/02/12 13:56:04;;;;;;;0.40;0.40;;;;;;;;;;5043360;28;19919;-82
2022/02/12 13:58:30;;;;;;;0.47;0.47;;;;;;;;;;5042512;28;20032;-81
2022/02/12 14:00:58;;;;;;;0.40;0.40;;;;;;;;;;5042577;28;20084;-81
2022/02/12 14:03:31;;;;;;;0.43;0.43;;;;;;;;;;5042670;28;20070;-81
2022/02/12 14:05:57;;;;;;;0.40;0.40;;;;;;;;;;5042627;28;20095;-81
2022/02/12 14:08:24;;;;;;;0.43;0.43;;;;;;;;;;5042874;28;20028;-82
2022/02/12 14:10:51;;;;;;;0.40;0.40;;;;;;;;;;5006789;28;20037;-82
2022/02/12 14:13:17;;;;;;;0.50;0.50;;;;;;;;;;5042645;28;20044;-81
2022/02/12 14:15:43;;;;;;;0.37;0.37;;;;;;;;;;5042507;28;20107;-81
2022/02/12 14:18:09;;;;;;;0.40;0.40;;;;;;;;;;5041187;28;20709;-81
2022/02/12 14:20:35;;;;;;;0.40;0.40;;;;;;;;;;5040123;28;20124;-82
2022/02/12 14:23:01;;;;;;;0.30;0.30;;;;;;;;;;5025200;28;20021;-81
2022/02/12 14:25:27;;;;;;;0.40;0.40;;;;;;;;;;5043079;28;20068;-81
2022/02/12 14:27:53;;;;;;;0.50;0.50;;;;;;;;;;5042469;28;20029;-81
2022/02/12 14:30:19;;;;;;;0.82;0.82;;;;;;;;;;5042017;28;20041;-82
2022/02/12 14:32:45;;;;;;;0.60;0.60;;;;;;;;;;5042407;28;20041;-82
2022/02/12 14:35:11;;;;;;;0.30;0.30;;;;;;;;;;5042538;28;20029;-81
2022/02/12 14:37:37;;;;;;;0.40;0.40;;;;;;;;;;5028759;28;20389;-81
2022/02/12 14:40:04;;;;;;;0.50;0.50;;;;;;;;;;5041036;28;20071;-82
2022/02/12 14:42:31;;;;;;;0.40;0.40;;;;;;;;;;5042157;28;20878;-81
2022/02/12 14:44:57;;;;;;;0.40;0.40;;;;;;;;;;5042261;28;20108;-81
2022/02/12 14:47:23;;;;;;;0.40;0.40;;;;;;;;;;5042020;28;20036;-81
2022/02/12 14:49:49;;;;;;;0.40;0.40;;;;;;;;;;5024608;28;20409;-81
2022/02/12 14:52:15;;;;;;;0.40;0.40;;;;;;;;;;5040633;28;20505;-82
2022/02/12 14:54:43;;;;;;;0.40;0.40;;;;;;;;;;5040971;28;20060;-81